Aérodrome :
LOGIN :

S'inscrire | Disclaimer

   EN    FR    IT 

 










Légende :    VFR   VFR Marginal   IFR   IFR Intensif   IFR Très Intensif
Visi : 
Plafond : 
>= 8 km
>= 3000ft
5 à 8 km
1000 à 3000 ft
1500m à 5 km
500 à 1000 ft
800 à 1500m
200 à 500 ft
< 800m
< 200 ft
Symboles :   Orages  Brouillard  Fortes neiges  Fortes précipitations  Vent > 20 kt
SIGMETs :   Divers  Orages  Givrage  Turbulence  Onde Orograph.  Cendres Volcan.







- Altitude de l'aérodrome : 102 ft
- Code IATA : EXT
- Voir les cartes d'approche


EGTE - Exeter

DERNIER METAR :
  • 142220Z 31008KT 9999 FEW025 05/02 Q0993

METARs EXPIRÉS :
  • 142150Z 31011KT 9999 FEW020 SCT030 05/02 Q0992
  • 142120Z 30012KT 9999 FEW018 SCT030 05/03 Q0992
  • 142050Z 30008KT 9999 FEW018 SCT025 05/04 Q0992
  • 142020Z 30010KT 9999 FEW018 BKN026 05/04 Q0991
  • 141950Z 31010KT 9999 -SHRA FEW015CB BKN025 05/03 Q0990

TAF TAF EGTE
Valide du 14 à 21h jusqu'au 15 à 02h UTC


142006Z 1421/1502 25012KT 9999 SCT020
TEMPO 1421/1502 29020G30KT 6000 SHRA BKN014
PROB40
TEMPO 1421/1502 2000 +SHRAGS BKN008
Pas de NOTAMs connus pour ce terrain.
2 SIGMETs publiés pour la FIR London (EGTT) :
 
Turbulence forte
EGTT SIGMET 06 VALID 142300/150300 EGRR
EGTT LONDON FIR SEV TURB FCST SW OF LINE N5100 W00800 - N4934 W00416 SFC/FL060 STNR NC=
Turbulence forte
EGTT SIGMET 05 VALID 141900/142300 EGRR
EGTT LONDON FIR SEV TURB FCST SW OF LINE N5000 W00149 - N5152 W00623 SFC/FL060 STNR WKN=



MET'MAP, la Météo Aéronautique d'un coup d'oeil ! - Copyright ORBIFLY Décembre 2007 - Disclaimer

ORBIFLY MET'MAP TEAM :

Programmation & Développement : Alexandra Zaïnal
Conception & Développement : Baudouin d'Aumeries
Co-Programmation & Développement : Marc-Olivier Méhu
Soutien technique & logistique : Manuel Goepfert

Contact : metmap@orbifly.com




SOURCES & CREDITS :

   NOAA